createdAt,value
2023-02-24T00:04:21.532Z,98136.53
2023-02-24T00:09:27.163Z,98137.59
2023-02-24T00:14:34.147Z,98122.66
2023-02-24T00:19:38.370Z,98118.31
2023-02-24T00:24:42.011Z,98108.78
2023-02-24T00:29:47.419Z,98109.03
2023-02-24T00:34:50.661Z,98114.47
2023-02-24T00:39:58.481Z,98111.19
2023-02-24T00:45:07.972Z,98103.38
2023-02-24T00:50:14.189Z,98102.84
2023-02-24T00:55:19.237Z,98092.00
2023-02-24T01:00:24.058Z,98086.44
2023-02-24T01:05:27.875Z,98078.31
2023-02-24T01:10:30.761Z,98075.91
2023-02-24T01:15:34.950Z,98071.91
2023-02-24T01:20:38.561Z,98068.44
2023-02-24T01:25:47.820Z,98063.47
2023-02-24T01:30:52.145Z,98064.31
2023-02-24T01:35:55.849Z,98038.66
2023-02-24T01:40:59.315Z,98043.28
2023-02-24T01:46:03.534Z,98030.53
2023-02-24T01:51:08.320Z,98027.59
2023-02-24T01:56:13.748Z,98018.53
2023-02-24T02:01:20.615Z,98016.25
2023-02-24T02:06:23.458Z,98019.94
2023-02-24T02:11:27.362Z,98012.88
2023-02-24T02:16:46.923Z,98009.81
2023-02-24T02:22:05.429Z,97997.56
2023-02-24T02:27:23.779Z,97999.47
2023-02-24T02:33:01.878Z,97990.91
2023-02-24T02:38:15.239Z,97996.34
2023-02-24T02:43:27.662Z,97999.06
2023-02-24T02:48:36.249Z,97984.81
2023-02-24T02:53:49.341Z,97975.19
2023-02-24T02:58:55.527Z,97981.19
2023-02-24T03:04:04.583Z,97967.25
2023-02-24T03:09:18.243Z,97964.84
2023-02-24T03:14:26.676Z,97962.38
2023-02-24T03:19:37.308Z,97952.69
2023-02-24T03:24:42.681Z,97947.41
2023-02-24T03:29:54.846Z,97941.88
2023-02-24T03:35:04.651Z,97939.00
2023-02-24T03:40:14.740Z,97929.88
2023-02-24T03:45:21.436Z,97936.63
2023-02-24T03:50:26.927Z,97924.28
2023-02-24T03:55:47.665Z,97916.00
2023-02-24T04:00:57.104Z,97913.38
2023-02-24T04:06:11.349Z,97903.75
2023-02-24T04:11:27.250Z,97906.88
2023-02-24T04:16:36.501Z,97902.91
2023-02-24T04:21:43.027Z,97901.00
2023-02-24T04:26:58.836Z,97894.66
2023-02-24T04:32:07.592Z,97897.06
2023-02-24T04:37:10.641Z,97885.53
2023-02-24T04:42:15.000Z,97885.41
2023-02-24T04:47:17.709Z,97878.22
2023-02-24T04:52:20.709Z,97870.03
2023-02-24T04:57:25.636Z,97868.22
2023-02-24T05:02:28.378Z,97849.72
2023-02-24T05:07:31.076Z,97852.25
2023-02-24T05:12:35.335Z,97850.56
2023-02-24T05:17:38.140Z,97850.81
2023-02-24T05:22:40.935Z,97847.91
2023-02-24T05:27:45.129Z,97838.25
2023-02-24T05:32:48.992Z,97832.72
2023-02-24T05:37:52.133Z,97828.53
2023-02-24T05:42:58.209Z,97828.88
2023-02-24T05:48:01.345Z,97823.34
2023-02-24T05:53:04.605Z,97819.16
2023-02-24T05:58:09.199Z,97819.16
2023-02-24T06:03:17.378Z,97809.50
2023-02-24T06:08:24.477Z,97809.00
2023-02-24T06:13:29.478Z,97808.44
2023-02-24T06:18:32.284Z,97808.19
2023-02-24T06:23:35.160Z,97802.50
2023-02-24T06:28:39.893Z,97808.59
2023-02-24T06:33:42.970Z,97809.69
2023-02-24T06:38:46.232Z,97811.84
2023-02-24T06:43:51.048Z,97816.03
2023-02-24T06:48:53.897Z,97817.81
2023-02-24T06:53:59.448Z,97809.88
2023-02-24T06:59:04.644Z,97808.19
2023-02-24T07:04:18.907Z,97805.56
2023-02-24T07:09:24.921Z,97802.66
2023-02-24T07:14:31.257Z,97798.44
2023-02-24T07:19:35.021Z,97804.00
2023-02-24T07:24:43.040Z,97793.53
2023-02-24T07:29:47.128Z,97794.25
2023-02-24T07:34:50.493Z,97786.69
2023-02-24T07:39:54.658Z,97781.97
2023-02-24T07:44:58.936Z,97781.41
2023-02-24T07:50:02.979Z,97777.81
2023-02-24T07:55:07.002Z,97773.19
2023-02-24T08:00:19.436Z,97769.03
2023-02-24T08:05:28.144Z,97770.88
2023-02-24T08:10:37.558Z,97772.28
2023-02-24T08:15:45.310Z,97764.00
2023-02-24T08:20:52.400Z,97753.34
2023-02-24T08:25:55.599Z,97749.66
2023-02-24T08:30:59.821Z,97739.31
2023-02-24T08:36:02.877Z,97731.91
2023-02-24T08:41:07.595Z,97732.00
2023-02-24T08:46:19.250Z,97730.44
2023-02-24T08:51:28.721Z,97729.63
2023-02-24T08:56:34.642Z,97717.13
2023-02-24T09:02:03.658Z,97713.97
2023-02-24T09:07:15.263Z,97709.91
2023-02-24T09:12:24.727Z,97700.06
2023-02-24T09:17:51.018Z,97694.38
2023-02-24T09:23:00.568Z,97692.81
2023-02-24T09:28:09.194Z,97679.47
2023-02-24T09:33:20.133Z,97667.50
2023-02-24T09:38:46.008Z,97665.16
2023-02-24T09:43:48.830Z,97648.34
2023-02-24T09:49:05.373Z,97629.81
2023-02-24T09:54:15.480Z,97636.84
2023-02-24T09:59:29.089Z,97625.59
2023-02-24T10:04:56.598Z,97622.13
2023-02-24T10:10:19.462Z,97624.94
2023-02-24T10:16:06.293Z,97619.66
2023-02-24T10:21:30.428Z,97607.34
2023-02-24T10:26:51.324Z,97597.34
2023-02-24T10:32:24.809Z,97588.31
2023-02-24T10:37:30.345Z,97596.75
2023-02-24T10:42:34.481Z,97587.91
2023-02-24T10:47:37.329Z,97579.00
2023-02-24T10:53:10.933Z,97578.00
2023-02-24T10:58:27.858Z,97566.03
2023-02-24T11:03:41.973Z,97554.00
2023-02-24T11:08:54.644Z,97549.31
2023-02-24T11:14:17.290Z,97553.75
2023-02-24T11:19:20.064Z,97541.94
2023-02-24T11:24:24.709Z,97534.31
2023-02-24T11:29:43.432Z,97536.06
2023-02-24T11:34:53.851Z,97508.47
2023-02-24T11:40:02.719Z,97498.09
2023-02-24T11:45:14.052Z,97496.66
2023-02-24T11:50:29.353Z,97483.50
2023-02-24T11:55:38.707Z,97452.78
2023-02-24T12:00:49.251Z,97439.59
2023-02-24T12:05:57.417Z,97438.75
2023-02-24T12:11:09.753Z,97433.88
2023-02-24T12:16:18.510Z,97434.09
2023-02-24T12:21:30.561Z,97426.84
2023-02-24T12:26:42.677Z,97418.91
2023-02-24T12:31:57.349Z,97413.00
2023-02-24T12:37:27.540Z,97408.81
2023-02-24T12:42:40.805Z,97402.97
2023-02-24T12:48:00.270Z,97399.66
2023-02-24T12:53:12.174Z,97383.31
2023-02-24T12:58:20.681Z,97380.38
2023-02-24T13:03:33.492Z,97365.28
2023-02-24T13:08:46.716Z,97353.00
2023-02-24T13:13:58.795Z,97347.41
2023-02-24T13:19:19.325Z,97337.06
2023-02-24T13:24:24.113Z,97334.28
2023-02-24T13:29:28.348Z,97330.63
2023-02-24T13:34:34.863Z,97322.81
2023-02-24T13:39:41.325Z,97315.38
2023-02-24T13:44:53.326Z,97311.25
2023-02-24T13:50:09.326Z,97310.09
2023-02-24T13:55:25.223Z,97295.41
2023-02-24T14:00:47.676Z,97291.38
2023-02-24T14:05:52.822Z,97289.00
2023-02-24T14:10:58.588Z,97282.56
2023-02-24T14:16:07.532Z,97285.44
2023-02-24T14:21:21.621Z,97285.16
2023-02-24T14:26:24.909Z,97281.63
2023-02-24T14:31:30.229Z,97275.28
2023-02-24T14:36:37.732Z,97272.28
2023-02-24T14:41:40.557Z,97268.31
2023-02-24T14:46:52.535Z,97262.06
2023-02-24T14:52:00.912Z,97258.06
2023-02-24T14:57:05.792Z,97255.34
2023-02-24T15:02:18.526Z,97260.25
2023-02-24T15:07:26.918Z,97256.47
2023-02-24T15:12:33.881Z,97255.94
2023-02-24T15:17:42.405Z,97240.53
2023-02-24T15:22:50.481Z,97245.41
2023-02-24T15:27:54.929Z,97234.25
2023-02-24T15:33:08.038Z,97223.41
2023-02-24T15:38:23.641Z,97235.06
2023-02-24T15:43:35.016Z,97230.13
2023-02-24T15:48:43.959Z,97230.75
2023-02-24T15:53:46.786Z,97231.50
2023-02-24T15:58:50.312Z,97233.81
2023-02-24T16:03:54.483Z,97213.31
2023-02-24T16:08:58.745Z,97219.06
2023-02-24T16:14:01.869Z,97213.91
2023-02-24T16:19:06.848Z,97208.78
2023-02-24T16:24:09.772Z,97211.16
2023-02-24T16:29:16.194Z,97206.13
2023-02-24T16:34:20.384Z,97209.88
2023-02-24T16:39:23.822Z,97209.25
2023-02-24T16:44:26.703Z,97205.56
2023-02-24T16:49:30.969Z,97201.84
2023-02-24T16:54:33.852Z,97202.19
2023-02-24T16:59:36.868Z,97201.47
2023-02-24T17:04:41.248Z,97204.09
2023-02-24T17:09:44.194Z,97199.94
2023-02-24T17:14:47.100Z,97199.56
2023-02-24T17:19:51.601Z,97201.59
2023-02-24T17:24:54.373Z,97201.72
2023-02-24T17:29:57.237Z,97211.41
2023-02-24T17:35:01.440Z,97209.72
2023-02-24T17:40:06.498Z,97200.88
2023-02-24T17:45:11.919Z,97194.78
2023-02-24T17:50:16.918Z,97195.34
2023-02-24T17:55:20.016Z,97192.63
2023-02-24T18:00:22.926Z,97191.19
2023-02-24T18:05:27.347Z,97176.94
2023-02-24T18:10:30.089Z,97178.38
2023-02-24T18:15:32.868Z,97175.25
2023-02-24T18:20:37.198Z,97184.47
2023-02-24T18:25:40.273Z,97179.66
2023-02-24T18:30:43.211Z,97177.50
2023-02-24T18:35:47.885Z,97173.41
2023-02-24T18:40:58.176Z,97177.47
2023-02-24T18:46:02.867Z,97181.53
2023-02-24T18:51:08.030Z,97164.66
2023-02-24T18:56:13.762Z,97162.47
2023-02-24T19:01:19.836Z,97188.22
2023-02-24T19:06:26.663Z,97185.59
2023-02-24T19:11:30.524Z,97186.88
2023-02-24T19:16:34.422Z,97181.50
2023-02-24T19:21:38.695Z,97188.44
2023-02-24T19:26:44.937Z,97196.25
2023-02-24T19:31:53.819Z,97178.59
2023-02-24T19:36:58.303Z,97182.19
2023-02-24T19:42:02.065Z,97180.78
2023-02-24T19:47:05.003Z,97172.16
2023-02-24T19:52:09.291Z,97167.25
2023-02-24T19:57:12.032Z,97166.78
2023-02-24T20:02:14.757Z,97159.97
2023-02-24T20:07:18.883Z,97171.22
2023-02-24T20:12:22.046Z,97175.78
2023-02-24T20:17:24.905Z,97178.19
2023-02-24T20:22:29.048Z,97185.84
2023-02-24T20:27:32.666Z,97180.56
2023-02-24T20:32:35.771Z,97169.88
2023-02-24T20:37:40.291Z,97169.06
2023-02-24T20:42:43.123Z,97183.91
2023-02-24T20:47:45.865Z,97188.84
2023-02-24T20:52:50.184Z,97197.59
2023-02-24T20:57:52.927Z,97193.53
2023-02-24T21:02:58.523Z,97195.59
2023-02-24T21:08:02.652Z,97203.84
2023-02-24T21:13:08.323Z,97221.44
2023-02-24T21:18:11.251Z,97223.50
2023-02-24T21:23:15.525Z,97233.34
2023-02-24T21:28:19.345Z,97242.56
2023-02-24T21:33:22.250Z,97237.88
2023-02-24T21:38:26.961Z,97240.75
2023-02-24T21:43:29.944Z,97228.53
2023-02-24T21:48:33.439Z,97234.75
2023-02-24T21:53:40.779Z,97235.72
2023-02-24T21:58:45.905Z,97237.53
2023-02-24T22:03:48.664Z,97236.81
2023-02-24T22:08:52.899Z,97256.81
2023-02-24T22:13:55.751Z,97248.31
2023-02-24T22:18:58.749Z,97255.84
2023-02-24T22:24:04.805Z,97269.97
2023-02-24T22:29:08.017Z,97257.78
2023-02-24T22:34:10.763Z,97258.72
2023-02-24T22:39:16.732Z,97264.47
2023-02-24T22:44:21.067Z,97269.72
2023-02-24T22:49:24.109Z,97283.59
2023-02-24T22:54:28.434Z,97276.19
2023-02-24T22:59:31.276Z,97272.63
2023-02-24T23:04:35.182Z,97273.25
2023-02-24T23:09:39.298Z,97278.13
2023-02-24T23:14:42.026Z,97279.72
2023-02-24T23:19:44.797Z,97279.56
2023-02-24T23:24:50.852Z,97280.66
2023-02-24T23:29:53.630Z,97281.50
2023-02-24T23:34:56.592Z,97290.09
2023-02-24T23:40:00.653Z,97282.94
2023-02-24T23:45:03.955Z,97288.19
2023-02-24T23:50:07.664Z,97291.56
2023-02-24T23:55:12.476Z,97293.25
